createdAt,value
2023-01-11T00:02:19.575Z,5.70
2023-01-11T00:04:47.738Z,8.65
2023-01-11T00:07:14.599Z,4.43
2023-01-11T00:09:41.397Z,5.25
2023-01-11T00:12:08.370Z,7.65
2023-01-11T00:14:35.260Z,7.20
2023-01-11T00:17:02.149Z,9.30
2023-01-11T00:19:29.140Z,7.82
2023-01-11T00:21:56.062Z,6.10
2023-01-11T00:24:22.853Z,5.85
2023-01-11T00:26:49.796Z,3.20
2023-01-11T00:29:16.719Z,7.47
2023-01-11T00:31:43.686Z,6.72
2023-01-11T00:34:10.476Z,3.20
2023-01-11T00:36:37.328Z,7.40
2023-01-11T00:39:04.389Z,3.35
2023-01-11T00:41:49.965Z,3.72
2023-01-11T00:44:35.461Z,7.47
2023-01-11T00:47:20.845Z,6.13
2023-01-11T00:49:48.041Z,17.45
2023-01-11T00:52:14.883Z,5.28
2023-01-11T00:54:42.304Z,1.90
2023-01-11T00:57:09.250Z,4.20
2023-01-11T00:59:37.526Z,3.47
2023-01-11T01:02:04.843Z,5.82
2023-01-11T01:04:32.732Z,3.72
2023-01-11T01:06:59.815Z,4.47
2023-01-11T01:09:26.982Z,3.13
2023-01-11T01:11:54.120Z,5.65
2023-01-11T01:14:28.438Z,3.00
2023-01-11T01:17:02.999Z,5.55
2023-01-11T01:19:35.261Z,8.73
2023-01-11T01:22:02.240Z,5.43
2023-01-11T01:24:30.828Z,4.80
2023-01-11T01:26:58.896Z,6.03
2023-01-11T01:29:27.390Z,8.40
2023-01-11T01:31:54.258Z,5.68
2023-01-11T01:34:21.122Z,6.80
2023-01-11T01:36:47.907Z,4.55
2023-01-11T01:39:15.084Z,3.58
2023-01-11T01:41:42.300Z,5.72
2023-01-11T01:44:46.921Z,6.60
2023-01-11T01:47:15.036Z,5.18
2023-01-11T01:49:43.953Z,3.45
2023-01-11T01:52:12.618Z,3.22
2023-01-11T01:54:44.581Z,3.58
2023-01-11T01:57:16.299Z,7.28
2023-01-11T01:59:43.599Z,6.10
2023-01-11T02:02:12.193Z,2.80
2023-01-11T02:04:43.632Z,4.53
2023-01-11T02:07:24.325Z,2.83
2023-01-11T02:10:17.267Z,4.80
2023-01-11T02:12:57.798Z,8.38
2023-01-11T02:15:25.582Z,4.25
2023-01-11T02:17:52.455Z,7.72
2023-01-11T02:20:28.278Z,5.22
2023-01-11T02:22:55.566Z,4.97
2023-01-11T02:25:59.549Z,5.32
2023-01-11T02:28:53.001Z,4.95
2023-01-11T02:31:45.797Z,2.38
2023-01-11T02:34:30.683Z,4.95
2023-01-11T02:37:16.827Z,4.15
2023-01-11T02:40:10.528Z,2.70
2023-01-11T02:43:22.172Z,2.50
2023-01-11T02:46:21.909Z,5.45
2023-01-11T02:49:03.624Z,3.45
2023-01-11T02:51:38.334Z,3.83
2023-01-11T02:54:09.989Z,4.35
2023-01-11T02:56:41.023Z,5.07
2023-01-11T02:59:15.680Z,2.67
2023-01-11T03:01:51.666Z,4.20
2023-01-11T03:04:30.955Z,2.33
2023-01-11T03:07:15.531Z,2.97
2023-01-11T03:10:26.656Z,4.88
2023-01-11T03:13:37.813Z,1.45
2023-01-11T03:16:22.868Z,0.73
2023-01-11T03:18:55.945Z,1.88
2023-01-11T03:21:41.352Z,2.42
2023-01-11T03:24:26.510Z,2.85
2023-01-11T03:27:16.781Z,1.70
2023-01-11T03:29:58.379Z,1.13
2023-01-11T03:32:33.444Z,3.17
2023-01-11T03:35:16.819Z,1.13
2023-01-11T03:37:51.446Z,2.20
2023-01-11T03:40:37.837Z,4.13
2023-01-11T03:43:12.923Z,3.35
2023-01-11T03:45:49.967Z,2.92
2023-01-11T03:49:05.557Z,5.10
2023-01-11T03:51:37.546Z,4.22
2023-01-11T03:54:08.553Z,4.78
2023-01-11T03:57:04.531Z,8.27
2023-01-11T03:59:32.019Z,5.30
2023-01-11T04:02:00.747Z,9.55
2023-01-11T04:04:27.970Z,4.28
2023-01-11T04:06:55.338Z,5.97
2023-01-11T04:09:22.570Z,7.40
2023-01-11T04:11:49.587Z,5.70
2023-01-11T04:14:16.597Z,17.00
2023-01-11T04:16:43.410Z,17.45
2023-01-11T04:19:10.410Z,16.27
2023-01-11T04:21:37.404Z,15.77
2023-01-11T04:24:04.798Z,18.85
2023-01-11T04:26:31.801Z,16.23
2023-01-11T04:28:58.881Z,16.85
2023-01-11T04:31:25.953Z,13.88
2023-01-11T04:33:53.061Z,12.77
2023-01-11T04:36:20.163Z,13.80
2023-01-11T04:38:47.211Z,13.02
2023-01-11T04:41:32.500Z,25.20
2023-01-11T04:43:59.512Z,22.30
2023-01-11T04:46:26.331Z,16.70
2023-01-11T04:48:53.441Z,19.92
2023-01-11T04:51:20.405Z,19.98
2023-01-11T04:53:49.101Z,28.35
2023-01-11T04:56:16.770Z,16.23
2023-01-11T04:58:43.571Z,19.13
2023-01-11T05:01:12.871Z,24.17
2023-01-11T05:03:39.855Z,24.23
2023-01-11T05:06:07.014Z,31.52
2023-01-11T05:08:35.111Z,27.38
2023-01-11T05:11:04.549Z,29.65
2023-01-11T05:13:44.222Z,32.05
2023-01-11T05:16:20.998Z,19.40
2023-01-11T05:18:50.611Z,26.35
2023-01-11T05:21:19.770Z,21.65
2023-01-11T05:23:47.200Z,27.13
2023-01-11T05:26:20.356Z,22.27
2023-01-11T05:28:47.647Z,19.85
2023-01-11T05:31:14.948Z,21.15
2023-01-11T05:33:42.192Z,20.02
2023-01-11T05:36:13.597Z,21.98
2023-01-11T05:38:41.092Z,19.52
2023-01-11T05:41:10.111Z,24.88
2023-01-11T05:43:57.551Z,24.60
2023-01-11T05:46:26.626Z,25.05
2023-01-11T05:48:59.237Z,24.48
2023-01-11T05:51:27.590Z,20.98
2023-01-11T05:53:54.357Z,18.00
2023-01-11T05:56:21.243Z,16.50
2023-01-11T05:58:50.002Z,25.17
2023-01-11T06:01:18.350Z,18.15
2023-01-11T06:03:46.123Z,23.13
2023-01-11T06:06:14.252Z,22.15
2023-01-11T06:08:41.204Z,17.42
2023-01-11T06:11:08.273Z,23.85
2023-01-11T06:13:35.774Z,19.23
2023-01-11T06:16:08.428Z,24.27
2023-01-11T06:18:37.926Z,22.00
2023-01-11T06:21:06.043Z,21.00
2023-01-11T06:23:37.714Z,20.17
2023-01-11T06:26:06.905Z,21.63
2023-01-11T06:28:34.084Z,15.13
2023-01-11T06:31:01.083Z,17.98
2023-01-11T06:33:29.103Z,21.23
2023-01-11T06:35:56.984Z,26.08
2023-01-11T06:38:25.284Z,22.00
2023-01-11T06:41:03.258Z,18.00
2023-01-11T06:43:32.001Z,22.88
2023-01-11T06:45:59.203Z,18.83
2023-01-11T06:48:27.565Z,21.10
2023-01-11T06:50:57.030Z,21.23
2023-01-11T06:53:28.338Z,13.30
2023-01-11T06:55:57.838Z,27.30
2023-01-11T06:58:26.939Z,18.55
2023-01-11T07:00:55.830Z,30.95
2023-01-11T07:03:24.975Z,20.02
2023-01-11T07:05:54.070Z,24.50
2023-01-11T07:08:21.312Z,24.08
2023-01-11T07:10:48.397Z,16.15
2023-01-11T07:13:17.408Z,29.10
2023-01-11T07:15:46.134Z,24.30
2023-01-11T07:18:13.154Z,24.42
2023-01-11T07:20:40.960Z,20.75
2023-01-11T07:23:07.957Z,15.93
2023-01-11T07:25:37.389Z,21.85
2023-01-11T07:28:07.250Z,22.33
2023-01-11T07:30:51.799Z,22.30
2023-01-11T07:33:19.011Z,24.50
2023-01-11T07:35:48.982Z,29.08
2023-01-11T07:38:15.779Z,20.80
2023-01-11T07:40:42.643Z,20.33
2023-01-11T07:43:18.993Z,28.55
2023-01-11T07:45:49.567Z,24.55
2023-01-11T07:48:20.992Z,26.23
2023-01-11T07:50:48.830Z,21.33
2023-01-11T07:53:15.859Z,24.52
2023-01-11T07:55:43.555Z,24.33
2023-01-11T07:58:14.213Z,26.77
2023-01-11T08:00:41.718Z,26.45
2023-01-11T08:03:09.302Z,23.20
2023-01-11T08:05:36.340Z,25.42
2023-01-11T08:08:03.734Z,34.40
2023-01-11T08:10:31.057Z,25.48
2023-01-11T08:13:16.476Z,31.63
2023-01-11T08:15:43.532Z,25.85
2023-01-11T08:18:11.971Z,26.48
2023-01-11T08:20:40.096Z,24.60
2023-01-11T08:23:09.567Z,28.77
2023-01-11T08:25:36.894Z,24.48
2023-01-11T08:28:05.991Z,40.55
2023-01-11T08:30:33.286Z,19.58
2023-01-11T08:33:04.238Z,27.48
2023-01-11T08:35:32.394Z,32.33
2023-01-11T08:37:59.325Z,18.35
2023-01-11T08:40:26.140Z,28.42
2023-01-11T08:42:59.473Z,30.60
2023-01-11T08:45:26.670Z,26.85
2023-01-11T08:47:54.014Z,31.65
2023-01-11T08:50:22.534Z,27.52
2023-01-11T08:52:51.107Z,26.52
2023-01-11T08:55:18.595Z,23.13
2023-01-11T08:57:45.994Z,29.88
2023-01-11T09:00:13.868Z,23.08
2023-01-11T09:02:41.304Z,28.15
2023-01-11T09:05:09.353Z,25.92
2023-01-11T09:07:36.293Z,31.08
2023-01-11T09:10:03.463Z,26.92
2023-01-11T09:12:32.834Z,27.40
2023-01-11T09:15:00.161Z,21.65
2023-01-11T09:17:27.208Z,22.77
2023-01-11T09:19:54.189Z,31.38
2023-01-11T09:22:21.273Z,31.88
2023-01-11T09:24:48.494Z,26.90
2023-01-11T09:27:16.397Z,24.17
2023-01-11T09:29:43.473Z,35.33
2023-01-11T09:32:10.333Z,27.58
2023-01-11T09:34:37.166Z,24.88
2023-01-11T09:37:06.939Z,36.08
2023-01-11T09:39:35.274Z,32.80
2023-01-11T09:42:27.073Z,31.08
2023-01-11T09:44:59.781Z,22.00
2023-01-11T09:47:45.375Z,27.98
2023-01-11T09:50:40.090Z,27.40
2023-01-11T09:53:18.512Z,30.33
2023-01-11T09:55:47.153Z,30.63
2023-01-11T09:58:38.973Z,27.83
2023-01-11T10:01:16.246Z,29.67
2023-01-11T10:04:41.604Z,35.38
2023-01-11T10:07:34.672Z,25.63
2023-01-11T10:18:31.226Z,30.52
2023-01-11T10:19:49.441Z,30.13
2023-01-11T10:22:24.811Z,29.15
2023-01-11T10:25:15.420Z,27.15
2023-01-11T10:28:07.683Z,29.17
2023-01-11T10:31:09.978Z,37.22
2023-01-11T10:34:03.225Z,25.02
2023-01-11T10:37:01.988Z,25.10
2023-01-11T10:40:15.107Z,32.15
2023-01-11T10:42:54.534Z,33.08
2023-01-11T10:45:38.602Z,33.58
2023-01-11T10:48:16.086Z,30.00
2023-01-11T10:51:05.540Z,30.40
2023-01-11T10:53:50.032Z,24.83
2023-01-11T10:56:24.560Z,31.48
2023-01-11T10:59:24.806Z,23.52
2023-01-11T11:02:34.185Z,27.08
2023-01-11T11:05:08.138Z,24.20
2023-01-11T11:08:27.174Z,32.63
2023-01-11T11:11:12.114Z,29.65
2023-01-11T11:13:45.366Z,31.15
2023-01-11T11:16:30.018Z,28.25
2023-01-11T11:18:59.407Z,28.77
2023-01-11T11:21:35.898Z,27.55
2023-01-11T11:24:32.509Z,29.45
2023-01-11T11:27:18.052Z,38.00
2023-01-11T11:29:52.480Z,27.05
2023-01-11T11:32:22.280Z,23.85
2023-01-11T11:34:51.751Z,30.27
2023-01-11T11:37:26.884Z,25.27
2023-01-11T11:39:55.236Z,23.58
2023-01-11T11:42:23.198Z,29.13
2023-01-11T11:45:27.584Z,32.70
2023-01-11T11:48:02.866Z,26.17
2023-01-11T11:50:44.898Z,31.25
2023-01-11T11:53:26.983Z,28.88
2023-01-11T11:55:54.770Z,22.60
2023-01-11T11:58:24.556Z,27.20
2023-01-11T12:00:53.164Z,23.77
2023-01-11T12:03:22.811Z,28.35
2023-01-11T12:05:58.757Z,24.25
2023-01-11T12:08:26.029Z,22.50
2023-01-11T12:10:58.507Z,26.58
2023-01-11T12:13:39.873Z,18.33
2023-01-11T12:16:20.429Z,14.32
2023-01-11T12:18:47.462Z,17.30
2023-01-11T12:21:26.445Z,14.50
2023-01-11T12:24:17.123Z,12.77
2023-01-11T12:27:05.185Z,14.38
2023-01-11T12:29:57.078Z,13.82
2023-01-11T12:32:44.265Z,20.95
2023-01-11T12:35:16.900Z,12.85
2023-01-11T12:38:04.056Z,15.10
2023-01-11T12:40:43.369Z,20.65
2023-01-11T12:43:22.155Z,16.50
2023-01-11T12:46:13.307Z,15.45
2023-01-11T12:49:16.440Z,21.05
2023-01-11T12:52:02.625Z,19.30
2023-01-11T12:55:06.945Z,14.77
2023-01-11T12:58:08.043Z,24.88
2023-01-11T13:00:58.522Z,19.02
2023-01-11T13:03:44.582Z,16.40
2023-01-11T13:06:41.030Z,15.55
2023-01-11T13:09:08.165Z,18.20
2023-01-11T13:11:45.767Z,15.60
2023-01-11T13:14:31.658Z,16.50
2023-01-11T13:17:22.377Z,22.05
2023-01-11T13:20:19.777Z,14.57
2023-01-11T13:22:55.299Z,16.33
2023-01-11T13:25:27.982Z,25.73
2023-01-11T13:27:57.289Z,16.25
2023-01-11T13:30:25.602Z,16.60
2023-01-11T13:33:06.121Z,14.40
2023-01-11T13:35:41.064Z,15.05
2023-01-11T13:38:23.176Z,18.25
2023-01-11T13:40:53.715Z,15.10
2023-01-11T13:43:43.905Z,17.58
2023-01-11T13:46:36.370Z,30.08
2023-01-11T13:49:12.852Z,22.05
2023-01-11T13:51:54.215Z,18.77
2023-01-11T13:54:31.355Z,23.55
2023-01-11T13:57:06.783Z,20.05
2023-01-11T13:59:41.346Z,11.18
2023-01-11T14:02:26.991Z,19.77
2023-01-11T14:05:19.707Z,19.73
2023-01-11T14:08:07.873Z,19.88
2023-01-11T14:10:45.858Z,20.00
2023-01-11T14:13:46.482Z,13.70
2023-01-11T14:16:45.583Z,19.98
2023-01-11T14:19:32.797Z,17.38
2023-01-11T14:22:24.311Z,25.58
2023-01-11T14:25:01.695Z,25.85
2023-01-11T14:27:47.535Z,20.27
2023-01-11T14:30:59.250Z,18.77
2023-01-11T14:33:49.938Z,21.67
2023-01-11T14:36:44.002Z,18.52
2023-01-11T14:39:37.411Z,21.15
2023-01-11T14:42:31.357Z,24.83
2023-01-11T14:45:16.790Z,26.90
2023-01-11T14:47:56.782Z,17.35
2023-01-11T14:50:41.057Z,25.75
2023-01-11T14:53:11.606Z,16.08
2023-01-11T14:55:46.610Z,18.35
2023-01-11T14:58:32.357Z,20.88
2023-01-11T15:00:59.146Z,19.58
2023-01-11T15:03:36.514Z,22.85
2023-01-11T15:06:17.011Z,15.13
2023-01-11T15:08:53.568Z,20.40
2023-01-11T15:11:37.126Z,16.88
2023-01-11T15:14:25.065Z,18.65
2023-01-11T15:17:15.522Z,18.50
2023-01-11T15:19:43.953Z,16.73
2023-01-11T15:22:28.411Z,13.88
2023-01-11T15:25:17.382Z,19.45
2023-01-11T15:27:44.467Z,17.98
2023-01-11T15:30:29.827Z,19.00
2023-01-11T15:33:18.295Z,24.33
2023-01-11T15:36:08.199Z,22.77
2023-01-11T15:38:42.673Z,25.58
2023-01-11T15:41:34.057Z,23.15
2023-01-11T15:44:03.756Z,15.80
2023-01-11T15:46:53.391Z,20.17
2023-01-11T15:49:57.119Z,19.55
2023-01-11T15:52:50.561Z,16.30
2023-01-11T15:55:35.335Z,22.88
2023-01-11T15:58:22.796Z,18.38
2023-01-11T16:01:21.969Z,15.25
2023-01-11T16:04:01.395Z,11.82
2023-01-11T16:06:42.772Z,14.68
2023-01-11T16:09:36.135Z,19.92
2023-01-11T16:12:31.039Z,14.65
2023-01-11T16:15:27.822Z,12.57
2023-01-11T16:17:57.974Z,16.80
2023-01-11T16:20:26.847Z,7.30
2023-01-11T16:23:01.293Z,14.30
2023-01-11T16:25:32.556Z,6.93
2023-01-11T16:28:00.811Z,9.40
2023-01-11T16:30:28.645Z,10.98
2023-01-11T16:33:21.592Z,9.52
2023-01-11T16:35:49.082Z,13.30
2023-01-11T16:38:22.220Z,14.48
2023-01-11T16:40:54.482Z,15.55
2023-01-11T16:43:26.659Z,14.65
2023-01-11T16:45:54.833Z,9.93
2023-01-11T16:48:28.732Z,18.33
2023-01-11T16:51:11.271Z,9.65
2023-01-11T16:53:40.991Z,10.38
2023-01-11T16:56:21.141Z,15.65
2023-01-11T16:59:16.412Z,18.02
2023-01-11T17:01:56.342Z,18.38
2023-01-11T17:04:34.086Z,17.95
2023-01-11T17:07:22.865Z,13.40
2023-01-11T17:09:50.309Z,16.38
2023-01-11T17:12:24.499Z,16.20
2023-01-11T17:15:03.376Z,20.02
2023-01-11T17:17:36.259Z,14.15
2023-01-11T17:20:05.073Z,22.13
2023-01-11T17:22:36.300Z,16.83
2023-01-11T17:25:19.161Z,20.98
2023-01-11T17:27:52.629Z,18.65
2023-01-11T17:30:24.681Z,22.30
2023-01-11T17:32:53.746Z,17.00
2023-01-11T17:35:23.749Z,20.75
2023-01-11T17:38:00.460Z,18.65
2023-01-11T17:40:38.104Z,18.00
2023-01-11T17:43:30.035Z,25.63
2023-01-11T17:45:58.932Z,24.23
2023-01-11T17:48:27.476Z,22.05
2023-01-11T17:50:58.425Z,16.92
2023-01-11T17:53:34.566Z,18.77
2023-01-11T17:56:08.019Z,16.80
2023-01-11T17:58:36.353Z,17.95
2023-01-11T18:01:09.287Z,18.95
2023-01-11T18:03:54.544Z,14.93
2023-01-11T18:06:21.600Z,18.65
2023-01-11T18:08:51.454Z,19.50
2023-01-11T18:11:27.215Z,19.58
2023-01-11T18:13:58.573Z,19.13
2023-01-11T18:16:25.697Z,24.73
2023-01-11T18:18:54.083Z,18.73
2023-01-11T18:21:27.136Z,16.90
2023-01-11T18:24:09.761Z,11.38
2023-01-11T18:26:45.718Z,25.65
2023-01-11T18:29:37.196Z,17.15
2023-01-11T18:32:10.604Z,18.90
2023-01-11T18:34:37.603Z,15.40
2023-01-11T18:37:08.111Z,24.23
2023-01-11T18:39:35.883Z,17.98
2023-01-11T18:42:07.509Z,13.57
2023-01-11T18:44:40.878Z,19.40
2023-01-11T18:47:15.371Z,17.40
2023-01-11T18:49:42.453Z,21.25
2023-01-11T18:52:10.372Z,21.55
2023-01-11T18:54:37.624Z,24.83
2023-01-11T18:57:04.575Z,20.77
2023-01-11T18:59:31.762Z,19.23
2023-01-11T19:02:16.043Z,21.98
2023-01-11T19:04:44.809Z,16.70
2023-01-11T19:07:12.636Z,18.60
2023-01-11T19:09:40.038Z,18.55
2023-01-11T19:12:07.752Z,14.07
2023-01-11T19:14:34.664Z,24.58
2023-01-11T19:17:01.886Z,18.17
2023-01-11T19:29:19.688Z,17.95
2023-01-11T19:31:47.809Z,16.15
2023-01-11T19:34:14.698Z,18.10
2023-01-11T19:36:41.976Z,21.70
2023-01-11T19:39:10.029Z,18.67
2023-01-11T19:41:56.219Z,21.55
2023-01-11T19:44:24.749Z,18.30
2023-01-11T19:47:09.738Z,31.02
2023-01-11T19:49:38.254Z,12.95
2023-01-11T19:52:12.187Z,22.67
2023-01-11T19:54:42.058Z,21.05
2023-01-11T19:57:14.449Z,20.67
2023-01-11T19:59:42.215Z,22.45
2023-01-11T20:02:12.540Z,25.40
2023-01-11T20:04:40.435Z,21.45
2023-01-11T20:07:09.020Z,17.00
2023-01-11T20:09:39.296Z,22.42
2023-01-11T20:12:08.259Z,12.40
2023-01-11T20:14:36.511Z,17.85
2023-01-11T20:17:04.480Z,22.48
2023-01-11T20:19:31.641Z,18.15
2023-01-11T20:21:58.836Z,20.23
2023-01-11T20:24:29.425Z,24.05
2023-01-11T20:27:01.069Z,18.50
2023-01-11T20:29:29.233Z,24.55
2023-01-11T20:31:58.206Z,23.77
2023-01-11T20:34:30.283Z,21.42
2023-01-11T20:36:57.553Z,23.05
2023-01-11T20:39:26.039Z,28.05
2023-01-11T20:41:54.236Z,21.60
2023-01-11T20:44:24.533Z,31.35
2023-01-11T20:46:52.919Z,23.15
2023-01-11T20:49:22.824Z,26.25
2023-01-11T20:51:50.205Z,21.27
2023-01-11T20:54:17.581Z,21.52
2023-01-11T20:56:46.958Z,20.55
2023-01-11T20:59:19.970Z,30.63
2023-01-11T21:01:48.222Z,22.92
2023-01-11T21:04:16.465Z,22.95
2023-01-11T21:06:45.441Z,22.23
2023-01-11T21:09:15.485Z,20.40
2023-01-11T21:11:42.482Z,21.45
2023-01-11T21:14:12.245Z,24.85
2023-01-11T21:16:44.303Z,18.73
2023-01-11T21:19:13.068Z,22.30
2023-01-11T21:21:40.746Z,29.95
2023-01-11T21:24:10.642Z,15.07
2023-01-11T21:26:37.776Z,24.95
2023-01-11T21:29:06.229Z,26.90
2023-01-11T21:31:35.517Z,23.85
2023-01-11T21:34:03.127Z,25.58
2023-01-11T21:36:31.760Z,23.05
2023-01-11T21:39:00.034Z,20.05
2023-01-11T21:41:48.133Z,18.60
2023-01-11T21:44:16.217Z,21.88
2023-01-11T21:46:44.106Z,20.42
2023-01-11T21:49:13.813Z,29.67
2023-01-11T21:51:42.123Z,20.60
2023-01-11T21:54:12.157Z,26.17
2023-01-11T21:56:40.222Z,21.17
2023-01-11T21:59:07.319Z,25.95
2023-01-11T22:01:34.321Z,26.27
2023-01-11T22:04:09.044Z,26.65
2023-01-11T22:06:41.460Z,22.88
2023-01-11T22:09:09.897Z,23.65
2023-01-11T22:11:37.141Z,21.30
2023-01-11T22:14:06.711Z,23.13
2023-01-11T22:16:34.670Z,25.17
2023-01-11T22:19:02.744Z,22.13
2023-01-11T22:21:29.627Z,23.20
2023-01-11T22:23:58.356Z,23.23
2023-01-11T22:26:26.874Z,19.90
2023-01-11T22:29:14.254Z,24.17
2023-01-11T22:31:54.757Z,19.95
2023-01-11T22:34:22.353Z,31.38
2023-01-11T22:36:49.788Z,22.42
2023-01-11T22:39:19.391Z,19.98
2023-01-11T22:41:47.859Z,26.92
2023-01-11T22:44:14.991Z,19.33
2023-01-11T22:46:43.293Z,32.03
2023-01-11T22:49:11.026Z,27.30
2023-01-11T22:51:38.037Z,30.42
2023-01-11T22:54:05.029Z,29.17
2023-01-11T22:56:32.590Z,23.02
2023-01-11T22:59:00.081Z,24.65
2023-01-11T23:01:39.179Z,30.70
2023-01-11T23:04:08.258Z,30.27
2023-01-11T23:06:38.835Z,36.90
2023-01-11T23:09:09.373Z,25.48
2023-01-11T23:11:56.993Z,28.88
2023-01-11T23:14:32.778Z,31.08
2023-01-11T23:17:07.442Z,28.65
2023-01-11T23:19:36.436Z,25.02
2023-01-11T23:22:04.211Z,32.03
2023-01-11T23:24:31.416Z,31.50
2023-01-11T23:26:58.509Z,34.00
2023-01-11T23:29:25.341Z,35.88
2023-01-11T23:31:52.221Z,35.00
2023-01-11T23:34:19.075Z,29.00
2023-01-11T23:36:46.000Z,34.67
2023-01-11T23:39:15.478Z,48.75
2023-01-11T23:42:01.360Z,43.45
2023-01-11T23:44:28.260Z,39.92
2023-01-11T23:47:13.512Z,39.33
2023-01-11T23:49:40.689Z,39.25
2023-01-11T23:52:07.581Z,31.40
2023-01-11T23:54:35.071Z,42.00
2023-01-11T23:57:03.699Z,43.42
2023-01-11T23:59:31.232Z,45.22
